sensor_id;sensor_type;location;lat;lon;timestamp;pressure;altitude;pressure_sealevel;temperature;humidity
23589;BME280;11972;48.078;11.876;2023-09-30T00:00:33;96293.94;;;16.26;100.00
23589;BME280;11972;48.078;11.876;2023-09-30T00:04:33;96305.78;;;16.17;100.00
23589;BME280;11972;48.078;11.876;2023-09-30T00:08:34;96305.31;;;16.07;100.00
23589;BME280;11972;48.078;11.876;2023-09-30T00:12:34;96312.69;;;16.05;100.00
23589;BME280;11972;48.078;11.876;2023-09-30T00:16:34;96320.91;;;16.10;100.00
23589;BME280;11972;48.078;11.876;2023-09-30T00:20:35;96325.09;;;16.32;100.00
23589;BME280;11972;48.078;11.876;2023-09-30T00:24:35;96325.63;;;16.56;100.00
23589;BME280;11972;48.078;11.876;2023-09-30T00:28:36;96331.38;;;16.59;100.00
23589;BME280;11972;48.078;11.876;2023-09-30T00:32:36;96339.16;;;16.61;100.00
23589;BME280;11972;48.078;11.876;2023-09-30T00:36:36;96352.72;;;16.66;100.00
23589;BME280;11972;48.078;11.876;2023-09-30T00:40:37;96349.72;;;16.76;100.00
23589;BME280;11972;48.078;11.876;2023-09-30T00:44:37;96346.66;;;16.79;100.00
23589;BME280;11972;48.078;11.876;2023-09-30T00:48:38;96357.94;;;16.81;100.00
23589;BME280;11972;48.078;11.876;2023-09-30T00:52:39;96354.44;;;16.80;100.00
23589;BME280;11972;48.078;11.876;2023-09-30T00:56:44;96345.63;;;16.80;100.00
23589;BME280;11972;48.078;11.876;2023-09-30T01:00:48;96346.66;;;16.79;100.00
23589;BME280;11972;48.078;11.876;2023-09-30T01:04:49;96343.34;;;16.77;100.00
23589;BME280;11972;48.078;11.876;2023-09-30T01:08:49;96340.09;;;16.75;100.00
23589;BME280;11972;48.078;11.876;2023-09-30T01:12:50;96342.94;;;16.73;100.00
23589;BME280;11972;48.078;11.876;2023-09-30T01:16:50;96343.09;;;16.72;100.00
23589;BME280;11972;48.078;11.876;2023-09-30T01:20:52;96347.00;;;16.69;100.00
23589;BME280;11972;48.078;11.876;2023-09-30T01:24:53;96348.03;;;16.68;100.00
23589;BME280;11972;48.078;11.876;2023-09-30T01:28:53;96349.06;;;16.67;100.00
23589;BME280;11972;48.078;11.876;2023-09-30T01:32:54;96354.38;;;16.67;100.00
23589;BME280;11972;48.078;11.876;2023-09-30T01:36:55;96366.69;;;16.68;100.00
23589;BME280;11972;48.078;11.876;2023-09-30T01:40:55;96354.38;;;16.67;100.00
23589;BME280;11972;48.078;11.876;2023-09-30T01:44:56;96349.44;;;16.64;100.00
23589;BME280;11972;48.078;11.876;2023-09-30T01:48:57;96353.13;;;16.63;100.00
23589;BME280;11972;48.078;11.876;2023-09-30T01:52:58;96352.28;;;16.56;100.00
23589;BME280;11972;48.078;11.876;2023-09-30T01:56:59;96352.47;;;16.48;100.00
23589;BME280;11972;48.078;11.876;2023-09-30T02:01:03;96355.69;;;16.36;100.00
23589;BME280;11972;48.078;11.876;2023-09-30T02:05:04;96364.06;;;16.27;100.00
23589;BME280;11972;48.078;11.876;2023-09-30T02:09:04;96366.50;;;16.22;100.00
23589;BME280;11972;48.078;11.876;2023-09-30T02:13:07;96371.56;;;16.17;100.00
23589;BME280;11972;48.078;11.876;2023-09-30T02:17:08;96363.56;;;16.10;100.00
23589;BME280;11972;48.078;11.876;2023-09-30T02:21:09;96368.66;;;16.05;100.00
23589;BME280;11972;48.078;11.876;2023-09-30T02:25:10;96368.81;;;15.97;100.00
23589;BME280;11972;48.078;11.876;2023-09-30T02:29:10;96371.03;;;15.93;100.00
23589;BME280;11972;48.078;11.876;2023-09-30T02:33:10;96365.50;;;15.95;100.00
23589;BME280;11972;48.078;11.876;2023-09-30T02:37:11;96368.81;;;15.97;100.00
23589;BME280;11972;48.078;11.876;2023-09-30T02:41:11;96374.97;;;16.04;100.00
23589;BME280;11972;48.078;11.876;2023-09-30T02:45:12;96384.88;;;16.10;100.00
23589;BME280;11972;48.078;11.876;2023-09-30T02:49:13;96370.13;;;16.14;100.00
23589;BME280;11972;48.078;11.876;2023-09-30T02:53:13;96370.75;;;16.16;100.00
23589;BME280;11972;48.078;11.876;2023-09-30T02:57:13;96372.16;;;16.12;100.00
23589;BME280;11972;48.078;11.876;2023-09-30T03:01:14;96370.09;;;16.07;100.00
23589;BME280;11972;48.078;11.876;2023-09-30T03:05:17;96370.22;;;15.93;100.00
23589;BME280;11972;48.078;11.876;2023-09-30T03:09:18;96374.91;;;15.91;100.00
23589;BME280;11972;48.078;11.876;2023-09-30T03:13:18;96371.66;;;15.95;100.00
23589;BME280;11972;48.078;11.876;2023-09-30T03:17:21;96374.31;;;15.95;100.00
23589;BME280;11972;48.078;11.876;2023-09-30T03:21:22;96370.22;;;15.93;100.00
23589;BME280;11972;48.078;11.876;2023-09-30T03:25:22;96378.00;;;15.94;100.00
23589;BME280;11972;48.078;11.876;2023-09-30T03:29:23;96385.78;;;15.96;100.00
23589;BME280;11972;48.078;11.876;2023-09-30T03:33:23;96377.78;;;15.96;100.00
23589;BME280;11972;48.078;11.876;2023-09-30T03:37:23;96384.97;;;15.95;100.00
23589;BME280;11972;48.078;11.876;2023-09-30T03:41:25;96387.25;;;15.98;100.00
23589;BME280;11972;48.078;11.876;2023-09-30T03:45:25;96380.72;;;16.01;100.00
23589;BME280;11972;48.078;11.876;2023-09-30T03:49:28;96383.38;;;16.01;100.00
23589;BME280;11972;48.078;11.876;2023-09-30T03:53:28;96388.06;;;15.99;100.00
23589;BME280;11972;48.078;11.876;2023-09-30T03:57:29;96394.44;;;15.98;100.00
23589;BME280;11972;48.078;11.876;2023-09-30T04:01:29;96384.53;;;15.92;100.00
23589;BME280;11972;48.078;11.876;2023-09-30T04:05:31;96381.63;;;15.86;100.00
23589;BME280;11972;48.078;11.876;2023-09-30T04:09:36;96387.75;;;15.80;100.00
23589;BME280;11972;48.078;11.876;2023-09-30T04:13:36;96388.38;;;15.82;100.00
23589;BME280;11972;48.078;11.876;2023-09-30T04:17:37;96383.69;;;15.84;100.00
23589;BME280;11972;48.078;11.876;2023-09-30T04:21:38;96395.97;;;15.85;100.00
23589;BME280;11972;48.078;11.876;2023-09-30T04:25:39;96392.66;;;15.83;100.00
23589;BME280;11972;48.078;11.876;2023-09-30T04:29:40;96388.94;;;15.78;100.00
23589;BME280;11972;48.078;11.876;2023-09-30T04:33:41;96394.84;;;15.73;100.00
23589;BME280;11972;48.078;11.876;2023-09-30T04:37:41;96386.22;;;15.71;100.00
23589;BME280;11972;48.078;11.876;2023-09-30T04:41:43;96386.22;;;15.71;100.00
23589;BME280;11972;48.078;11.876;2023-09-30T04:45:43;96384.34;;;15.65;100.00
23589;BME280;11972;48.078;11.876;2023-09-30T04:49:44;96397.13;;;15.55;100.00
23589;BME280;11972;48.078;11.876;2023-09-30T04:53:46;96406.03;;;15.41;100.00
23589;BME280;11972;48.078;11.876;2023-09-30T04:57:47;96416.72;;;15.26;100.00
23589;BME280;11972;48.078;11.876;2023-09-30T05:01:47;96422.59;;;15.21;100.00
23589;BME280;11972;48.078;11.876;2023-09-30T05:05:48;96429.97;;;15.19;100.00
23589;BME280;11972;48.078;11.876;2023-09-30T05:09:48;96422.34;;;15.16;100.00
23589;BME280;11972;48.078;11.876;2023-09-30T05:13:48;96420.31;;;14.97;100.00
23589;BME280;11972;48.078;11.876;2023-09-30T05:17:49;96429.41;;;14.73;100.00
23589;BME280;11972;48.078;11.876;2023-09-30T05:21:49;96441.13;;;14.57;100.00
23589;BME280;11972;48.078;11.876;2023-09-30T05:25:49;96436.16;;;14.54;100.00
23589;BME280;11972;48.078;11.876;2023-09-30T05:29:50;96434.88;;;14.50;100.00
23589;BME280;11972;48.078;11.876;2023-09-30T05:33:50;96445.94;;;14.68;100.00
23589;BME280;11972;48.078;11.876;2023-09-30T05:37:51;96450.06;;;14.85;100.00
23589;BME280;11972;48.078;11.876;2023-09-30T05:41:53;96458.44;;;15.04;100.00
23589;BME280;11972;48.078;11.876;2023-09-30T05:45:53;96456.13;;;15.16;100.00
23589;BME280;11972;48.078;11.876;2023-09-30T05:49:54;96462.53;;;15.21;100.00
23589;BME280;11972;48.078;11.876;2023-09-30T05:53:55;96464.75;;;15.18;100.00
23589;BME280;11972;48.078;11.876;2023-09-30T05:57:56;96461.31;;;15.02;100.00
23589;BME280;11972;48.078;11.876;2023-09-30T06:01:56;96470.22;;;14.95;100.00
23589;BME280;11972;48.078;11.876;2023-09-30T06:05:57;96467.59;;;15.16;100.00
23589;BME280;11972;48.078;11.876;2023-09-30T06:09:57;96480.56;;;15.41;100.00
23589;BME280;11972;48.078;11.876;2023-09-30T06:13:58;96487.84;;;15.68;100.00
23589;BME280;11972;48.078;11.876;2023-09-30T06:18:01;96488.06;;;15.95;100.00
23589;BME280;11972;48.078;11.876;2023-09-30T06:22:01;96488.59;;;16.11;100.00
23589;BME280;11972;48.078;11.876;2023-09-30T06:26:03;96482.31;;;16.19;100.00
23589;BME280;11972;48.078;11.876;2023-09-30T06:30:03;96479.78;;;16.11;100.00
23589;BME280;11972;48.078;11.876;2023-09-30T06:34:05;96488.56;;;16.05;100.00
23589;BME280;11972;48.078;11.876;2023-09-30T06:38:07;96492.97;;;16.19;100.00
23589;BME280;11972;48.078;11.876;2023-09-30T06:42:08;96494.47;;;16.28;100.00
23589;BME280;11972;48.078;11.876;2023-09-30T06:46:08;96514.47;;;16.46;100.00
23589;BME280;11972;48.078;11.876;2023-09-30T06:50:11;96511.47;;;16.55;100.00
23589;BME280;11972;48.078;11.876;2023-09-30T06:54:12;96514.00;;;16.70;100.00
23589;BME280;11972;48.078;11.876;2023-09-30T06:58:12;96519.91;;;16.87;100.00
23589;BME280;11972;48.078;11.876;2023-09-30T07:02:14;96525.31;;;17.07;100.00
23589;BME280;11972;48.078;11.876;2023-09-30T07:06:22;96521.06;;;17.19;100.00
23589;BME280;11972;48.078;11.876;2023-09-30T07:10:22;96510.63;;;17.24;100.00
23589;BME280;11972;48.078;11.876;2023-09-30T07:14:23;96522.97;;;17.32;100.00
23589;BME280;11972;48.078;11.876;2023-09-30T07:18:23;96510.31;;;17.54;100.00
23589;BME280;11972;48.078;11.876;2023-09-30T07:22:24;96520.56;;;17.50;100.00
23589;BME280;11972;48.078;11.876;2023-09-30T07:26:25;96509.84;;;17.44;100.00
23589;BME280;11972;48.078;11.876;2023-09-30T07:30:27;96517.47;;;17.47;100.00
23589;BME280;11972;48.078;11.876;2023-09-30T07:34:28;96514.03;;;17.66;100.00
23589;BME280;11972;48.078;11.876;2023-09-30T07:38:28;96520.69;;;17.83;100.00
23589;BME280;11972;48.078;11.876;2023-09-30T07:42:29;96509.38;;;17.95;100.00
23589;BME280;11972;48.078;11.876;2023-09-30T07:46:30;96517.84;;;18.12;100.00
23589;BME280;11972;48.078;11.876;2023-09-30T07:50:31;96525.22;;;18.16;100.00
23589;BME280;11972;48.078;11.876;2023-09-30T07:54:31;96517.00;;;18.18;100.00
23589;BME280;11972;48.078;11.876;2023-09-30T07:58:32;96510.44;;;18.20;100.00
23589;BME280;11972;48.078;11.876;2023-09-30T08:02:33;96517.41;;;18.34;100.00
23589;BME280;11972;48.078;11.876;2023-09-30T08:06:33;96519.47;;;18.32;100.00
23589;BME280;11972;48.078;11.876;2023-09-30T08:10:34;96519.88;;;18.29;100.00
23589;BME280;11972;48.078;11.876;2023-09-30T08:14:34;96517.00;;;18.11;100.00
23589;BME280;11972;48.078;11.876;2023-09-30T08:18:35;96521.91;;;18.14;100.00
23589;BME280;11972;48.078;11.876;2023-09-30T08:22:35;96519.47;;;18.19;100.00
23589;BME280;11972;48.078;11.876;2023-09-30T08:26:35;96511.25;;;18.27;100.00
23589;BME280;11972;48.078;11.876;2023-09-30T08:30:37;96500.53;;;18.01;100.00
23589;BME280;11972;48.078;11.876;2023-09-30T08:34:38;96498.50;;;18.16;100.00
23589;BME280;11972;48.078;11.876;2023-09-30T08:38:40;96511.63;;;18.51;100.00
23589;BME280;11972;48.078;11.876;2023-09-30T08:42:41;96520.66;;;18.63;100.00
23589;BME280;11972;48.078;11.876;2023-09-30T08:46:41;96492.50;;;18.54;100.00
23589;BME280;11972;48.078;11.876;2023-09-30T08:50:42;96506.28;;;17.98;100.00
23589;BME280;11972;48.078;11.876;2023-09-30T08:54:42;96506.28;;;17.84;100.00
23589;BME280;11972;48.078;11.876;2023-09-30T08:58:43;96505.91;;;18.27;100.00
23589;BME280;11972;48.078;11.876;2023-09-30T09:02:43;96516.56;;;18.60;100.00
23589;BME280;11972;48.078;11.876;2023-09-30T09:06:43;96502.56;;;18.58;100.00
23589;BME280;11972;48.078;11.876;2023-09-30T09:10:58;96509.53;;;18.79;100.00
23589;BME280;11972;48.078;11.876;2023-09-30T09:14:59;96505.47;;;18.44;100.00
23589;BME280;11972;48.078;11.876;2023-09-30T09:18:59;96505.47;;;18.30;100.00
23589;BME280;11972;48.078;11.876;2023-09-30T09:23:14;96497.22;;;18.39;100.00
23589;BME280;11972;48.078;11.876;2023-09-30T09:27:15;96500.50;;;18.54;100.00
23589;BME280;11972;48.078;11.876;2023-09-30T09:31:24;96479.94;;;18.54;100.00
23589;BME280;11972;48.078;11.876;2023-09-30T09:35:25;96481.59;;;18.42;100.00
23589;BME280;11972;48.078;11.876;2023-09-30T09:39:30;96479.75;;;18.56;100.00
23589;BME280;11972;48.078;11.876;2023-09-30T09:43:32;96486.22;;;19.45;100.00
23589;BME280;11972;48.078;11.876;2023-09-30T09:47:34;96491.63;;;20.08;100.00
23589;BME280;11972;48.078;11.876;2023-09-30T09:51:35;96465.88;;;20.25;100.00
23589;BME280;11972;48.078;11.876;2023-09-30T09:55:36;96453.22;;;20.32;100.00
23589;BME280;11972;48.078;11.876;2023-09-30T09:59:39;96442.47;;;20.32;100.00
23589;BME280;11972;48.078;11.876;2023-09-30T10:03:39;96447.59;;;19.91;100.00
23589;BME280;11972;48.078;11.876;2023-09-30T10:07:45;96450.13;;;19.86;100.00
23589;BME280;11972;48.078;11.876;2023-09-30T10:11:57;96454.78;;;19.72;100.00
23589;BME280;11972;48.078;11.876;2023-09-30T10:15:57;96432.88;;;19.75;100.00
23589;BME280;11972;48.078;11.876;2023-09-30T10:20:05;96410.94;;;19.21;100.00
23589;BME280;11972;48.078;11.876;2023-09-30T10:36:57;96434.16;;;19.72;100.00
23589;BME280;11972;48.078;11.876;2023-09-30T10:40:57;96404.81;;;19.77;100.00
23589;BME280;11972;48.078;11.876;2023-09-30T10:44:57;96395.63;;;19.92;100.00
23589;BME280;11972;48.078;11.876;2023-09-30T10:49:15;96402.34;;;20.01;100.00
23589;BME280;11972;48.078;11.876;2023-09-30T10:53:18;96401.59;;;19.94;100.00
23589;BME280;11972;48.078;11.876;2023-09-30T10:57:27;96404.38;;;19.80;100.00
23589;BME280;11972;48.078;11.876;2023-09-30T11:01:34;96401.88;;;19.86;100.00
23589;BME280;11972;48.078;11.876;2023-09-30T11:05:35;96404.69;;;20.16;100.00
23589;BME280;11972;48.078;11.876;2023-09-30T11:09:35;96391.72;;;20.13;100.00
23589;BME280;11972;48.078;11.876;2023-09-30T11:13:37;96396.72;;;20.27;100.00
23589;BME280;11972;48.078;11.876;2023-09-30T11:17:39;96383.94;;;20.48;100.00
23589;BME280;11972;48.078;11.876;2023-09-30T11:21:40;96375.91;;;20.66;100.00
23589;BME280;11972;48.078;11.876;2023-09-30T11:25:40;96369.72;;;20.66;100.00
23589;BME280;11972;48.078;11.876;2023-09-30T11:29:50;96367.06;;;20.41;100.00
23589;BME280;11972;48.078;11.876;2023-09-30T11:33:53;96371.47;;;20.17;100.00
23589;BME280;11972;48.078;11.876;2023-09-30T11:37:53;96366.78;;;20.12;100.00
23589;BME280;11972;48.078;11.876;2023-09-30T11:41:54;96375.41;;;19.96;100.00
23589;BME280;11972;48.078;11.876;2023-09-30T11:50:05;96377.66;;;20.17;100.00
23589;BME280;11972;48.078;11.876;2023-09-30T11:54:08;96382.59;;;20.39;100.00
23589;BME280;11972;48.078;11.876;2023-09-30T11:58:09;96380.28;;;20.42;100.00
23589;BME280;11972;48.078;11.876;2023-09-30T12:02:13;96371.97;;;20.50;100.00
23589;BME280;11972;48.078;11.876;2023-09-30T12:06:15;96368.44;;;20.68;100.00
23589;BME280;11972;48.078;11.876;2023-09-30T12:10:16;96358.81;;;20.61;100.00
23589;BME280;11972;48.078;11.876;2023-09-30T12:14:16;96362.47;;;20.29;100.00
23589;BME280;11972;48.078;11.876;2023-09-30T12:18:17;96362.00;;;20.14;100.00
23589;BME280;11972;48.078;11.876;2023-09-30T12:22:23;96355.28;;;20.23;100.00
23589;BME280;11972;48.078;11.876;2023-09-30T12:26:23;96353.59;;;20.29;100.00
23589;BME280;11972;48.078;11.876;2023-09-30T12:30:24;96338.16;;;20.43;100.00
23589;BME280;11972;48.078;11.876;2023-09-30T12:34:24;96341.06;;;20.23;100.00
23589;BME280;11972;48.078;11.876;2023-09-30T12:38:27;96334.50;;;20.00;100.00
23589;BME280;11972;48.078;11.876;2023-09-30T12:42:28;96316.69;;;19.88;100.00
23589;BME280;11972;48.078;11.876;2023-09-30T12:46:29;96317.28;;;19.90;100.00
23589;BME280;11972;48.078;11.876;2023-09-30T12:50:31;96324.28;;;19.91;100.00
23589;BME280;11972;48.078;11.876;2023-09-30T12:54:31;96319.38;;;19.88;100.00
23589;BME280;11972;48.078;11.876;2023-09-30T12:58:32;96322.22;;;20.11;100.00
23589;BME280;11972;48.078;11.876;2023-09-30T13:02:32;96316.09;;;20.41;100.00
23589;BME280;11972;48.078;11.876;2023-09-30T13:06:33;96319.13;;;20.51;100.00
23589;BME280;11972;48.078;11.876;2023-09-30T13:10:35;96325.50;;;20.68;100.00
23589;BME280;11972;48.078;11.876;2023-09-30T13:14:36;96339.06;;;20.73;100.00
23589;BME280;11972;48.078;11.876;2023-09-30T13:18:36;96321.69;;;20.76;100.00
23589;BME280;11972;48.078;11.876;2023-09-30T13:22:38;96316.69;;;20.79;100.00
23589;BME280;11972;48.078;11.876;2023-09-30T13:26:38;96310.00;;;20.52;100.00
23589;BME280;11972;48.078;11.876;2023-09-30T13:30:38;96301.13;;;20.33;100.00
23589;BME280;11972;48.078;11.876;2023-09-30T13:34:39;96298.28;;;20.28;100.00
23589;BME280;11972;48.078;11.876;2023-09-30T13:38:40;96306.13;;;20.29;100.00
23589;BME280;11972;48.078;11.876;2023-09-30T13:42:40;96299.56;;;20.62;100.00
23589;BME280;11972;48.078;11.876;2023-09-30T13:46:40;96299.53;;;20.80;100.00
23589;BME280;11972;48.078;11.876;2023-09-30T13:50:42;96307.50;;;20.87;100.00
23589;BME280;11972;48.078;11.876;2023-09-30T13:54:42;96297.41;;;21.13;100.00
23589;BME280;11972;48.078;11.876;2023-09-30T13:58:43;96289.34;;;21.13;100.00
23589;BME280;11972;48.078;11.876;2023-09-30T14:02:44;96275.41;;;21.34;100.00
23589;BME280;11972;48.078;11.876;2023-09-30T14:06:44;96274.91;;;21.25;100.00
23589;BME280;11972;48.078;11.876;2023-09-30T14:10:45;96272.34;;;20.89;100.00
23589;BME280;11972;48.078;11.876;2023-09-30T14:14:45;96280.84;;;20.74;100.00
23589;BME280;11972;48.078;11.876;2023-09-30T14:18:45;96279.38;;;20.60;100.00
23589;BME280;11972;48.078;11.876;2023-09-30T14:22:46;96283.47;;;20.25;100.00
23589;BME280;11972;48.078;11.876;2023-09-30T14:26:46;96279.59;;;20.03;100.00
23589;BME280;11972;48.078;11.876;2023-09-30T14:30:46;96286.31;;;19.94;100.00
23589;BME280;11972;48.078;11.876;2023-09-30T14:34:47;96286.53;;;20.11;100.00
23589;BME280;11972;48.078;11.876;2023-09-30T14:38:47;96283.00;;;20.28;100.00
23589;BME280;11972;48.078;11.876;2023-09-30T14:42:49;96274.59;;;20.43;100.00
23589;BME280;11972;48.078;11.876;2023-09-30T14:46:49;96278.25;;;20.49;100.00
23589;BME280;11972;48.078;11.876;2023-09-30T14:50:51;96281.91;;;20.54;100.00
23589;BME280;11972;48.078;11.876;2023-09-30T14:54:51;96278.09;;;20.62;100.00
23589;BME280;11972;48.078;11.876;2023-09-30T14:58:52;96284.88;;;20.46;100.00
23589;BME280;11972;48.078;11.876;2023-09-30T15:02:52;96297.16;;;20.36;100.00
23589;BME280;11972;48.078;11.876;2023-09-30T15:06:54;96292.72;;;20.11;100.00
23589;BME280;11972;48.078;11.876;2023-09-30T15:10:55;96297.03;;;19.94;100.00
23589;BME280;11972;48.078;11.876;2023-09-30T15:14:55;96302.56;;;19.74;100.00
23589;BME280;11972;48.078;11.876;2023-09-30T15:18:56;96302.81;;;19.72;100.00
23589;BME280;11972;48.078;11.876;2023-09-30T15:22:56;96303.19;;;19.76;100.00
23589;BME280;11972;48.078;11.876;2023-09-30T15:26:56;96297.09;;;19.87;100.00
23589;BME280;11972;48.078;11.876;2023-09-30T15:30:57;96306.56;;;19.90;100.00
23589;BME280;11972;48.078;11.876;2023-09-30T15:34:59;96314.16;;;19.93;100.00
23589;BME280;11972;48.078;11.876;2023-09-30T15:38:59;96321.31;;;19.99;100.00
23589;BME280;11972;48.078;11.876;2023-09-30T15:43:01;96322.63;;;19.90;100.00
23589;BME280;11972;48.078;11.876;2023-09-30T15:47:01;96322.69;;;19.83;100.00
23589;BME280;11972;48.078;11.876;2023-09-30T15:51:02;96316.78;;;19.74;100.00
23589;BME280;11972;48.078;11.876;2023-09-30T15:55:02;96316.66;;;19.69;100.00
23589;BME280;11972;48.078;11.876;2023-09-30T15:59:03;96326.16;;;19.65;100.00
23589;BME280;11972;48.078;11.876;2023-09-30T16:03:08;96328.28;;;19.56;100.00
23589;BME280;11972;48.078;11.876;2023-09-30T16:07:08;96327.38;;;19.38;100.00
23589;BME280;11972;48.078;11.876;2023-09-30T16:11:11;96330.25;;;19.11;100.00
23589;BME280;11972;48.078;11.876;2023-09-30T16:15:11;96337.03;;;18.75;100.00
23589;BME280;11972;48.078;11.876;2023-09-30T16:19:12;96349.94;;;18.40;100.00
23589;BME280;11972;48.078;11.876;2023-09-30T16:23:12;96347.13;;;18.02;100.00
23589;BME280;11972;48.078;11.876;2023-09-30T16:27:13;96358.47;;;17.64;100.00
23589;BME280;11972;48.078;11.876;2023-09-30T16:31:14;96359.69;;;17.28;100.00
23589;BME280;11972;48.078;11.876;2023-09-30T16:35:14;96369.50;;;17.08;100.00
23589;BME280;11972;48.078;11.876;2023-09-30T16:39:14;96365.56;;;16.91;100.00
23589;BME280;11972;48.078;11.876;2023-09-30T16:43:15;96374.94;;;16.73;100.00
23589;BME280;11972;48.078;11.876;2023-09-30T16:47:17;96379.78;;;16.56;100.00
23589;BME280;11972;48.078;11.876;2023-09-30T16:51:17;96378.25;;;16.34;100.00
23589;BME280;11972;48.078;11.876;2023-09-30T16:55:17;96383.63;;;16.06;100.00
23589;BME280;11972;48.078;11.876;2023-09-30T16:59:18;96389.16;;;15.76;100.00
23589;BME280;11972;48.078;11.876;2023-09-30T17:03:18;96401.19;;;15.51;100.00
23589;BME280;11972;48.078;11.876;2023-09-30T17:07:18;96416.16;;;15.30;100.00
23589;BME280;11972;48.078;11.876;2023-09-30T17:11:20;96422.03;;;15.04;100.00
23589;BME280;11972;48.078;11.876;2023-09-30T17:15:20;96429.50;;;14.79;100.00
23589;BME280;11972;48.078;11.876;2023-09-30T17:19:20;96432.47;;;14.55;100.00
23589;BME280;11972;48.078;11.876;2023-09-30T17:23:21;96427.69;;;14.35;100.00
23589;BME280;11972;48.078;11.876;2023-09-30T17:27:21;96433.56;;;14.16;100.00
23589;BME280;11972;48.078;11.876;2023-09-30T17:31:22;96434.63;;;13.92;100.00
23589;BME280;11972;48.078;11.876;2023-09-30T17:35:22;96445.94;;;13.71;100.00
23589;BME280;11972;48.078;11.876;2023-09-30T17:39:22;96441.13;;;13.52;100.00
23589;BME280;11972;48.078;11.876;2023-09-30T17:43:23;96448.03;;;13.38;100.00
23589;BME280;11972;48.078;11.876;2023-09-30T17:47:23;96444.22;;;13.32;100.00
23589;BME280;11972;48.078;11.876;2023-09-30T17:51:23;96448.78;;;13.24;100.00
23589;BME280;11972;48.078;11.876;2023-09-30T17:55:24;96452.66;;;13.13;100.00
23589;BME280;11972;48.078;11.876;2023-09-30T17:59:24;96452.69;;;13.05;100.00
23589;BME280;11972;48.078;11.876;2023-09-30T18:03:24;96465.34;;;12.95;100.00
23589;BME280;11972;48.078;11.876;2023-09-30T18:07:25;96467.06;;;12.79;100.00
23589;BME280;11972;48.078;11.876;2023-09-30T18:11:25;96473.41;;;12.70;100.00
23589;BME280;11972;48.078;11.876;2023-09-30T18:15:25;96477.72;;;12.63;100.00
23589;BME280;11972;48.078;11.876;2023-09-30T18:19:26;96483.41;;;12.60;100.00
23589;BME280;11972;48.078;11.876;2023-09-30T18:23:26;96484.56;;;12.57;100.00
23589;BME280;11972;48.078;11.876;2023-09-30T18:27:27;96494.81;;;12.60;100.00
23589;BME280;11972;48.078;11.876;2023-09-30T18:31:27;96498.25;;;12.69;100.00
23589;BME280;11972;48.078;11.876;2023-09-30T18:35:28;96491.44;;;12.75;100.00
23589;BME280;11972;48.078;11.876;2023-09-30T18:39:28;96495.09;;;12.74;100.00
23589;BME280;11972;48.078;11.876;2023-09-30T18:43:28;96498.75;;;12.73;100.00
23589;BME280;11972;48.078;11.876;2023-09-30T18:47:31;96501.56;;;12.71;100.00
23589;BME280;11972;48.078;11.876;2023-09-30T18:51:31;96498.91;;;12.71;100.00
23589;BME280;11972;48.078;11.876;2023-09-30T18:55:34;96504.06;;;12.64;100.00
23589;BME280;11972;48.078;11.876;2023-09-30T18:59:37;96511.22;;;12.56;100.00
23589;BME280;11972;48.078;11.876;2023-09-30T19:03:39;96521.97;;;12.54;100.00
23589;BME280;11972;48.078;11.876;2023-09-30T19:07:39;96520.16;;;12.55;100.00
23589;BME280;11972;48.078;11.876;2023-09-30T19:11:40;96521.84;;;12.48;100.00
23589;BME280;11972;48.078;11.876;2023-09-30T19:15:40;96524.16;;;12.42;100.00
23589;BME280;11972;48.078;11.876;2023-09-30T19:19:43;96526.50;;;12.37;100.00
23589;BME280;11972;48.078;11.876;2023-09-30T19:23:43;96532.31;;;12.33;100.00
23589;BME280;11972;48.078;11.876;2023-09-30T19:27:43;96537.78;;;12.31;100.00
23589;BME280;11972;48.078;11.876;2023-09-30T19:31:44;96538.28;;;12.35;100.00
23589;BME280;11972;48.078;11.876;2023-09-30T19:35:44;96535.28;;;12.30;100.00
23589;BME280;11972;48.078;11.876;2023-09-30T19:39:45;96536.78;;;12.24;100.00
23589;BME280;11972;48.078;11.876;2023-09-30T19:43:45;96537.31;;;12.20;100.00
23589;BME280;11972;48.078;11.876;2023-09-30T19:47:45;96526.22;;;12.08;100.00
23589;BME280;11972;48.078;11.876;2023-09-30T19:51:46;96534.50;;;11.97;100.00
23589;BME280;11972;48.078;11.876;2023-09-30T19:55:47;96529.88;;;11.90;100.00
23589;BME280;11972;48.078;11.876;2023-09-30T19:59:50;96529.69;;;11.84;100.00
23589;BME280;11972;48.078;11.876;2023-09-30T20:03:51;96530.84;;;11.81;100.00
23589;BME280;11972;48.078;11.876;2023-09-30T20:07:52;96528.56;;;11.86;100.00
23589;BME280;11972;48.078;11.876;2023-09-30T20:11:53;96535.31;;;11.97;100.00
23589;BME280;11972;48.078;11.876;2023-09-30T20:15:58;96525.22;;;12.01;100.00
23589;BME280;11972;48.078;11.876;2023-09-30T20:19:59;96527.88;;;12.01;100.00
23589;BME280;11972;48.078;11.876;2023-09-30T20:23:59;96528.22;;;11.98;100.00
23589;BME280;11972;48.078;11.876;2023-09-30T20:28:04;96525.91;;;12.03;100.00
23589;BME280;11972;48.078;11.876;2023-09-30T20:32:06;96524.56;;;12.07;100.00
23589;BME280;11972;48.078;11.876;2023-09-30T20:36:06;96518.94;;;12.10;100.00
23589;BME280;11972;48.078;11.876;2023-09-30T20:40:07;96513.28;;;12.13;100.00
23589;BME280;11972;48.078;11.876;2023-09-30T20:44:10;96515.44;;;12.17;100.00
23589;BME280;11972;48.078;11.876;2023-09-30T20:48:12;96517.59;;;12.22;100.00
23589;BME280;11972;48.078;11.876;2023-09-30T20:52:13;96509.81;;;12.21;100.00
23589;BME280;11972;48.078;11.876;2023-09-30T20:56:13;96511.31;;;12.15;100.00
23589;BME280;11972;48.078;11.876;2023-09-30T21:00:13;96516.44;;;12.08;100.00